<?xml version="1.0" encoding="utf-8"?>
<gpx xmlns:xsi="http://www.w3.org/2001/XMLSchema-instance" xmlns:xsd="http://www.w3.org/2001/XMLSchema" version="1.1" creator="Shapelink.com" xmlns="http://www.topografix.com/GPX/1/1" xmlns:gpxtpx="http://www.garmin.com/xmlschemas/TrackPointExtension/v1">
  <metadata>
    <name>Övrigt 4.74 km, 2019-05-24</name>
    <desc></desc>
    <author><name>Marian Moron</name></author> 
    <time>2019-05-24T19:41:06Z</time>
  </metadata>
  <trk>
    <name>Övrigt 4.74 km, 2019-05-24</name>
    <trkseg>
      <trkpt lat="51.229915643308" lon="4.457987443358">
        <ele>0</ele>
        <time>2019-05-24T19:41:06Z</time>
      </trkpt>
      <trkpt lat="51.229990326037" lon="4.458346691592">
        <ele>0</ele>
        <time>2019-05-24T19:41:47Z</time>
      </trkpt>
      <trkpt lat="51.230067355698" lon="4.458739299788">
        <ele>0</ele>
        <time>2019-05-24T19:42:05Z</time>
      </trkpt>
      <trkpt lat="51.230190904904" lon="4.458719099409">
        <ele>0</ele>
        <time>2019-05-24T19:42:20Z</time>
      </trkpt>
      <trkpt lat="51.23053657446" lon="4.459025457854">
        <ele>0</ele>
        <time>2019-05-24T19:42:53Z</time>
      </trkpt>
      <trkpt lat="51.230540597772" lon="4.459093351244">
        <ele>0</ele>
        <time>2019-05-24T19:42:59Z</time>
      </trkpt>
      <trkpt lat="51.23065308287" lon="4.459718054251">
        <ele>0</ele>
        <time>2019-05-24T19:43:50Z</time>
      </trkpt>
      <trkpt lat="51.230702787537" lon="4.459706822505">
        <ele>0</ele>
        <time>2019-05-24T19:43:55Z</time>
      </trkpt>
      <trkpt lat="51.230779398103" lon="4.459755940439">
        <ele>0</ele>
        <time>2019-05-24T19:44:04Z</time>
      </trkpt>
      <trkpt lat="51.230656100354" lon="4.459895331436">
        <ele>0</ele>
        <time>2019-05-24T19:44:26Z</time>
      </trkpt>
      <trkpt lat="51.230696501112" lon="4.459979150436">
        <ele>0</ele>
        <time>2019-05-24T19:44:30Z</time>
      </trkpt>
      <trkpt lat="51.230765148873" lon="4.460241671544">
        <ele>0</ele>
        <time>2019-05-24T19:44:42Z</time>
      </trkpt>
      <trkpt lat="51.230768669271" lon="4.460737209472">
        <ele>0</ele>
        <time>2019-05-24T19:46:28Z</time>
      </trkpt>
      <trkpt lat="51.230785935985" lon="4.460879366496">
        <ele>0</ele>
        <time>2019-05-24T19:46:45Z</time>
      </trkpt>
      <trkpt lat="51.230918370005" lon="4.461154041359">
        <ele>0</ele>
        <time>2019-05-24T19:47:08Z</time>
      </trkpt>
      <trkpt lat="51.231110315515" lon="4.461233334133">
        <ele>0</ele>
        <time>2019-05-24T19:47:24Z</time>
      </trkpt>
      <trkpt lat="51.231275690402" lon="4.461335174218">
        <ele>0</ele>
        <time>2019-05-24T19:47:38Z</time>
      </trkpt>
      <trkpt lat="51.231362945981" lon="4.461424106177">
        <ele>0</ele>
        <time>2019-05-24T19:48:06Z</time>
      </trkpt>
      <trkpt lat="51.231403011463" lon="4.461560814966">
        <ele>0</ele>
        <time>2019-05-24T19:48:26Z</time>
      </trkpt>
      <trkpt lat="51.231348948208" lon="4.461699703049">
        <ele>0</ele>
        <time>2019-05-24T19:48:54Z</time>
      </trkpt>
      <trkpt lat="51.231365460551" lon="4.46173314683">
        <ele>0</ele>
        <time>2019-05-24T19:48:57Z</time>
      </trkpt>
      <trkpt lat="51.231433521579" lon="4.462002289639">
        <ele>0</ele>
        <time>2019-05-24T19:49:23Z</time>
      </trkpt>
      <trkpt lat="51.231482723332" lon="4.462564463672">
        <ele>0</ele>
        <time>2019-05-24T19:49:59Z</time>
      </trkpt>
      <trkpt lat="51.231451710302" lon="4.462891190134">
        <ele>0</ele>
        <time>2019-05-24T19:50:22Z</time>
      </trkpt>
      <trkpt lat="51.231568302531" lon="4.46333157516">
        <ele>0</ele>
        <time>2019-05-24T19:50:55Z</time>
      </trkpt>
      <trkpt lat="51.231445507696" lon="4.46363332356">
        <ele>0</ele>
        <time>2019-05-24T19:51:12Z</time>
      </trkpt>
      <trkpt lat="51.231429582086" lon="4.463668359902">
        <ele>0</ele>
        <time>2019-05-24T19:51:14Z</time>
      </trkpt>
      <trkpt lat="51.231392953183" lon="4.463738432586">
        <ele>0</ele>
        <time>2019-05-24T19:51:18Z</time>
      </trkpt>
      <trkpt lat="51.231353725891" lon="4.463852258788">
        <ele>0</ele>
        <time>2019-05-24T19:51:26Z</time>
      </trkpt>
      <trkpt lat="51.231346014543" lon="4.464110672765">
        <ele>0</ele>
        <time>2019-05-24T19:51:41Z</time>
      </trkpt>
      <trkpt lat="51.231376859935" lon="4.464274035996">
        <ele>0</ele>
        <time>2019-05-24T19:51:49Z</time>
      </trkpt>
      <trkpt lat="51.231476688364" lon="4.464518284562">
        <ele>0</ele>
        <time>2019-05-24T19:52:04Z</time>
      </trkpt>
      <trkpt lat="51.23142505586" lon="4.46476655644">
        <ele>0</ele>
        <time>2019-05-24T19:52:19Z</time>
      </trkpt>
      <trkpt lat="51.23146277441" lon="4.464912820595">
        <ele>0</ele>
        <time>2019-05-24T19:52:31Z</time>
      </trkpt>
      <trkpt lat="51.231304524138" lon="4.465565016234">
        <ele>0</ele>
        <time>2019-05-24T19:53:09Z</time>
      </trkpt>
      <trkpt lat="51.231188267185" lon="4.466262055038">
        <ele>0</ele>
        <time>2019-05-24T19:53:41Z</time>
      </trkpt>
      <trkpt lat="51.231206372089" lon="4.466358195431">
        <ele>0</ele>
        <time>2019-05-24T19:53:47Z</time>
      </trkpt>
      <trkpt lat="51.231380715609" lon="4.466515691332">
        <ele>0</ele>
        <time>2019-05-24T19:54:02Z</time>
      </trkpt>
      <trkpt lat="51.231289352899" lon="4.466899833809">
        <ele>0</ele>
        <time>2019-05-24T19:54:37Z</time>
      </trkpt>
      <trkpt lat="51.231309134183" lon="4.4669575851">
        <ele>0</ele>
        <time>2019-05-24T19:54:40Z</time>
      </trkpt>
      <trkpt lat="51.231328077277" lon="4.467013157097">
        <ele>0</ele>
        <time>2019-05-24T19:54:44Z</time>
      </trkpt>
      <trkpt lat="51.231368394216" lon="4.467118769037">
        <ele>0</ele>
        <time>2019-05-24T19:54:51Z</time>
      </trkpt>
      <trkpt lat="51.231774245814" lon="4.467162690193">
        <ele>0</ele>
        <time>2019-05-24T19:55:25Z</time>
      </trkpt>
      <trkpt lat="51.231987984264" lon="4.466972085787">
        <ele>0</ele>
        <time>2019-05-24T19:55:44Z</time>
      </trkpt>
      <trkpt lat="51.232258635815" lon="4.467527302843">
        <ele>0</ele>
        <time>2019-05-24T19:56:13Z</time>
      </trkpt>
      <trkpt lat="51.232486455857" lon="4.468026528807">
        <ele>0</ele>
        <time>2019-05-24T19:56:43Z</time>
      </trkpt>
      <trkpt lat="51.232612687271" lon="4.468302628593">
        <ele>0</ele>
        <time>2019-05-24T19:56:59Z</time>
      </trkpt>
      <trkpt lat="51.23274436692" lon="4.468612926531">
        <ele>0</ele>
        <time>2019-05-24T19:57:16Z</time>
      </trkpt>
      <trkpt lat="51.232840172037" lon="4.468863712979">
        <ele>0</ele>
        <time>2019-05-24T19:57:32Z</time>
      </trkpt>
      <trkpt lat="51.233101268222" lon="4.469459666069">
        <ele>0</ele>
        <time>2019-05-24T19:58:03Z</time>
      </trkpt>
      <trkpt lat="51.233383402976" lon="4.470021421007">
        <ele>0</ele>
        <time>2019-05-24T19:58:35Z</time>
      </trkpt>
      <trkpt lat="51.233395892007" lon="4.470037765712">
        <ele>0</ele>
        <time>2019-05-24T19:58:37Z</time>
      </trkpt>
      <trkpt lat="51.233480884473" lon="4.470188472274">
        <ele>0</ele>
        <time>2019-05-24T19:58:49Z</time>
      </trkpt>
      <trkpt lat="51.233523213068" lon="4.470270866351">
        <ele>0</ele>
        <time>2019-05-24T19:58:57Z</time>
      </trkpt>
      <trkpt lat="51.233614491959" lon="4.470481168222">
        <ele>0</ele>
        <time>2019-05-24T19:59:14Z</time>
      </trkpt>
      <trkpt lat="51.233879192361" lon="4.47106387791">
        <ele>0</ele>
        <time>2019-05-24T19:59:55Z</time>
      </trkpt>
      <trkpt lat="51.234120842538" lon="4.471678690275">
        <ele>0</ele>
        <time>2019-05-24T20:00:30Z</time>
      </trkpt>
      <trkpt lat="51.23432603145" lon="4.472027712591">
        <ele>0</ele>
        <time>2019-05-24T20:00:58Z</time>
      </trkpt>
      <trkpt lat="51.234414209038" lon="4.472231644218">
        <ele>0</ele>
        <time>2019-05-24T20:01:10Z</time>
      </trkpt>
      <trkpt lat="51.234642112899" lon="4.472793482975">
        <ele>0</ele>
        <time>2019-05-24T20:01:50Z</time>
      </trkpt>
      <trkpt lat="51.234662648554" lon="4.472922564235">
        <ele>0</ele>
        <time>2019-05-24T20:01:57Z</time>
      </trkpt>
      <trkpt lat="51.234641023252" lon="4.473180223841">
        <ele>0</ele>
        <time>2019-05-24T20:02:42Z</time>
      </trkpt>
      <trkpt lat="51.234660385441" lon="4.473262282642">
        <ele>0</ele>
        <time>2019-05-24T20:02:50Z</time>
      </trkpt>
      <trkpt lat="51.234643873098" lon="4.473321375037">
        <ele>0</ele>
        <time>2019-05-24T20:02:54Z</time>
      </trkpt>
      <trkpt lat="51.234451843769" lon="4.473669978258">
        <ele>0</ele>
        <time>2019-05-24T20:03:33Z</time>
      </trkpt>
      <trkpt lat="51.234340783594" lon="4.473765029004">
        <ele>0</ele>
        <time>2019-05-24T20:03:49Z</time>
      </trkpt>
      <trkpt lat="51.234169792834" lon="4.473989077191">
        <ele>0</ele>
        <time>2019-05-24T20:04:30Z</time>
      </trkpt>
      <trkpt lat="51.234028641638" lon="4.474115895338">
        <ele>0</ele>
        <time>2019-05-24T20:04:47Z</time>
      </trkpt>
      <trkpt lat="51.233696299303" lon="4.474492410286">
        <ele>0.6</ele>
        <time>2019-05-24T20:05:55Z</time>
      </trkpt>
      <trkpt lat="51.233331351377" lon="4.474922820851">
        <ele>0</ele>
        <time>2019-05-24T20:06:33Z</time>
      </trkpt>
      <trkpt lat="51.233217776632" lon="4.47509389543">
        <ele>1</ele>
        <time>2019-05-24T20:06:49Z</time>
      </trkpt>
      <trkpt lat="51.232855175638" lon="4.475531598248">
        <ele>2.4</ele>
        <time>2019-05-24T20:07:34Z</time>
      </trkpt>
      <trkpt lat="51.232482600183" lon="4.475626481356">
        <ele>0</ele>
        <time>2019-05-24T20:08:15Z</time>
      </trkpt>
      <trkpt lat="51.232267688267" lon="4.475006975127">
        <ele>3.6</ele>
        <time>2019-05-24T20:09:03Z</time>
      </trkpt>
      <trkpt lat="51.232225359672" lon="4.474878815876">
        <ele>5.2</ele>
        <time>2019-05-24T20:09:12Z</time>
      </trkpt>
      <trkpt lat="51.232019500208" lon="4.474395431703">
        <ele>6.2</ele>
        <time>2019-05-24T20:09:50Z</time>
      </trkpt>
      <trkpt lat="51.232000557114" lon="4.474368777261">
        <ele>6.2</ele>
        <time>2019-05-24T20:09:52Z</time>
      </trkpt>
      <trkpt lat="51.231943476375" lon="4.474268194461">
        <ele>5.2</ele>
        <time>2019-05-24T20:10:02Z</time>
      </trkpt>
      <trkpt lat="51.231643907269" lon="4.473741224408">
        <ele>5</ele>
        <time>2019-05-24T20:10:52Z</time>
      </trkpt>
      <trkpt lat="51.231460930392" lon="4.473449115193">
        <ele>7</ele>
        <time>2019-05-24T20:11:22Z</time>
      </trkpt>
      <trkpt lat="51.231260183887" lon="4.472826004747">
        <ele>4.6</ele>
        <time>2019-05-24T20:12:04Z</time>
      </trkpt>
      <trkpt lat="51.231103945271" lon="4.472676052556">
        <ele>2.6</ele>
        <time>2019-05-24T20:12:23Z</time>
      </trkpt>
      <trkpt lat="51.231066142902" lon="4.47266314443">
        <ele>2</ele>
        <time>2019-05-24T20:12:26Z</time>
      </trkpt>
      <trkpt lat="51.230975366925" lon="4.472639256015">
        <ele>0</ele>
        <time>2019-05-24T20:12:37Z</time>
      </trkpt>
      <trkpt lat="51.230866150768" lon="4.472659372575">
        <ele>0</ele>
        <time>2019-05-24T20:13:25Z</time>
      </trkpt>
      <trkpt lat="51.230478990807" lon="4.473007137606">
        <ele>3.8</ele>
        <time>2019-05-24T20:14:08Z</time>
      </trkpt>
      <trkpt lat="51.230047993509" lon="4.472924911167">
        <ele>0</ele>
        <time>2019-05-24T20:14:46Z</time>
      </trkpt>
      <trkpt lat="51.229882953898" lon="4.472814773001">
        <ele>3.2</ele>
        <time>2019-05-24T20:15:02Z</time>
      </trkpt>
      <trkpt lat="51.229801398011" lon="4.472885935332">
        <ele>3.4</ele>
        <time>2019-05-24T20:15:12Z</time>
      </trkpt>
      <trkpt lat="51.229746664204" lon="4.472940417682">
        <ele>1.4</ele>
        <time>2019-05-24T20:15:19Z</time>
      </trkpt>
      <trkpt lat="51.229463775079" lon="4.472667503018">
        <ele>0</ele>
        <time>2019-05-24T20:15:47Z</time>
      </trkpt>
      <trkpt lat="51.229274176501" lon="4.472229967838">
        <ele>0</ele>
        <time>2019-05-24T20:16:19Z</time>
      </trkpt>
      <trkpt lat="51.229211982803" lon="4.472078758362">
        <ele>0</ele>
        <time>2019-05-24T20:16:29Z</time>
      </trkpt>
      <trkpt lat="51.228936972664" lon="4.471505855497">
        <ele>0</ele>
        <time>2019-05-24T20:17:05Z</time>
      </trkpt>
      <trkpt lat="51.228885507798" lon="4.471404350688">
        <ele>0</ele>
        <time>2019-05-24T20:17:12Z</time>
      </trkpt>
      <trkpt lat="51.228627680554" lon="4.470814348747">
        <ele>0</ele>
        <time>2019-05-24T20:17:46Z</time>
      </trkpt>
      <trkpt lat="51.228432047008" lon="4.470312440575">
        <ele>0</ele>
        <time>2019-05-24T20:18:17Z</time>
      </trkpt>
      <trkpt lat="51.228375133907" lon="4.470334736429">
        <ele>0</ele>
        <time>2019-05-24T20:18:25Z</time>
      </trkpt>
      <trkpt lat="51.228272958546" lon="4.470368934581">
        <ele>0</ele>
        <time>2019-05-24T20:19:11Z</time>
      </trkpt>
      <trkpt lat="51.228225516992" lon="4.470408078054">
        <ele>1.4</ele>
        <time>2019-05-24T20:19:19Z</time>
      </trkpt>
      <trkpt lat="51.227888648431" lon="4.470894814987">
        <ele>0</ele>
        <time>2019-05-24T20:19:58Z</time>
      </trkpt>
      <trkpt lat="51.227832405882" lon="4.470994559597">
        <ele>0</ele>
        <time>2019-05-24T20:20:11Z</time>
      </trkpt>
      <trkpt lat="51.227723692639" lon="4.47106890705">
        <ele>0</ele>
        <time>2019-05-24T20:20:23Z</time>
      </trkpt>
      <trkpt lat="51.227564017444" lon="4.471235371584">
        <ele>0</ele>
        <time>2019-05-24T20:20:40Z</time>
      </trkpt>
      <trkpt lat="51.227504757411" lon="4.471305611906">
        <ele>0</ele>
        <time>2019-05-24T20:20:48Z</time>
      </trkpt>
      <trkpt lat="51.227424877904" lon="4.471362105912">
        <ele>0</ele>
        <time>2019-05-24T20:21:03Z</time>
      </trkpt>
      <trkpt lat="51.227062025453" lon="4.471805592241">
        <ele>0</ele>
        <time>2019-05-24T20:21:42Z</time>
      </trkpt>
      <trkpt lat="51.226928417967" lon="4.471977588829">
        <ele>0</ele>
        <time>2019-05-24T20:22:02Z</time>
      </trkpt>
      <trkpt lat="51.226814256489" lon="4.47205294211">
        <ele>3</ele>
        <time>2019-05-24T20:22:19Z</time>
      </trkpt>
      <trkpt lat="51.226435646066" lon="4.47244102408">
        <ele>5.2</ele>
        <time>2019-05-24T20:22:55Z</time>
      </trkpt>
      <trkpt lat="51.226073464167" lon="4.472855844311">
        <ele>0</ele>
        <time>2019-05-24T20:23:37Z</time>
      </trkpt>
      <trkpt lat="51.225918650474" lon="4.473043515052">
        <ele>0</ele>
        <time>2019-05-24T20:23:56Z</time>
      </trkpt>
      <trkpt lat="51.225853439292" lon="4.473113923012">
        <ele>0</ele>
        <time>2019-05-24T20:24:03Z</time>
      </trkpt>
      <trkpt lat="51.22581588838" lon="4.473145187499">
        <ele>0</ele>
        <time>2019-05-24T20:24:08Z</time>
      </trkpt>
      <trkpt lat="51.225800130408" lon="4.473092716805">
        <ele>0</ele>
        <time>2019-05-24T20:24:14Z</time>
      </trkpt>
      <trkpt lat="51.225732656113" lon="4.472749478">
        <ele>0</ele>
        <time>2019-05-24T20:24:31Z</time>
      </trkpt>
      <trkpt lat="51.225657721927" lon="4.472460637726">
        <ele>0</ele>
        <time>2019-05-24T20:24:55Z</time>
      </trkpt>
      <trkpt lat="51.225662415791" lon="4.472052774472">
        <ele>0</ele>
        <time>2019-05-24T20:25:18Z</time>
      </trkpt>
      <trkpt lat="51.225695105201" lon="4.471975660992">
        <ele>0</ele>
        <time>2019-05-24T20:25:24Z</time>
      </trkpt>
      <trkpt lat="51.225771296672" lon="4.471264540596">
        <ele>0</ele>
        <time>2019-05-24T20:26:04Z</time>
      </trkpt>
      <trkpt lat="51.225781019676" lon="4.470836979877">
        <ele>0</ele>
        <time>2019-05-24T20:26:29Z</time>
      </trkpt>
      <trkpt lat="51.225809518136" lon="4.470563143204">
        <ele>0</ele>
        <time>2019-05-24T20:26:48Z</time>
      </trkpt>
      <trkpt lat="51.225791077956" lon="4.470382932354">
        <ele>0</ele>
        <time>2019-05-24T20:27:01Z</time>
      </trkpt>
      <trkpt lat="51.225778924201" lon="4.470134241381">
        <ele>2.6</ele>
        <time>2019-05-24T20:27:18Z</time>
      </trkpt>
      <trkpt lat="51.225776577269" lon="4.469423791537">
        <ele>3.4</ele>
        <time>2019-05-24T20:27:55Z</time>
      </trkpt>
      <trkpt lat="51.225729806267" lon="4.469247436361">
        <ele>1.2</ele>
        <time>2019-05-24T20:28:05Z</time>
      </trkpt>
      <trkpt lat="51.225705414938" lon="4.46909916055">
        <ele>0</ele>
        <time>2019-05-24T20:28:13Z</time>
      </trkpt>
      <trkpt lat="51.225772889233" lon="4.469055909946">
        <ele>0</ele>
        <time>2019-05-24T20:28:20Z</time>
      </trkpt>
      <trkpt lat="51.225781941685" lon="4.469018359034">
        <ele>0</ele>
        <time>2019-05-24T20:28:23Z</time>
      </trkpt>
      <trkpt lat="51.225770793758" lon="4.468855163441">
        <ele>1</ele>
        <time>2019-05-24T20:28:36Z</time>
      </trkpt>
      <trkpt lat="51.225816139837" lon="4.468130883462">
        <ele>5.8</ele>
        <time>2019-05-24T20:29:15Z</time>
      </trkpt>
      <trkpt lat="51.225876992431" lon="4.467406938759">
        <ele>9.6</ele>
        <time>2019-05-24T20:29:54Z</time>
      </trkpt>
      <trkpt lat="51.225900880846" lon="4.467277941318">
        <ele>12.2</ele>
        <time>2019-05-24T20:30:07Z</time>
      </trkpt>
      <trkpt lat="51.225860060993" lon="4.466550811493">
        <ele>4.4</ele>
        <time>2019-05-24T20:30:43Z</time>
      </trkpt>
      <trkpt lat="51.225856875871" lon="4.466224755583">
        <ele>1.4</ele>
        <time>2019-05-24T20:31:04Z</time>
      </trkpt>
      <trkpt lat="51.225879674639" lon="4.466093578848">
        <ele>0</ele>
        <time>2019-05-24T20:31:10Z</time>
      </trkpt>
      <trkpt lat="51.22627018736" lon="4.466058793963">
        <ele>0</ele>
        <time>2019-05-24T20:31:44Z</time>
      </trkpt>
      <trkpt lat="51.22655517196" lon="4.466155688727">
        <ele>0</ele>
        <time>2019-05-24T20:32:08Z</time>
      </trkpt>
      <trkpt lat="51.226675284587" lon="4.466158454754">
        <ele>0</ele>
        <time>2019-05-24T20:32:21Z</time>
      </trkpt>
      <trkpt lat="51.226878545662" lon="4.466186534119">
        <ele>0</ele>
        <time>2019-05-24T20:32:38Z</time>
      </trkpt>
      <trkpt lat="51.227226226874" lon="4.465954523127">
        <ele>2.2</ele>
        <time>2019-05-24T20:33:20Z</time>
      </trkpt>
      <trkpt lat="51.227193286007" lon="4.465706335068">
        <ele>5.4</ele>
        <time>2019-05-24T20:33:37Z</time>
      </trkpt>
      <trkpt lat="51.227131762861" lon="4.465338956391">
        <ele>8.6</ele>
        <time>2019-05-24T20:34:05Z</time>
      </trkpt>
      <trkpt lat="51.227022379066" lon="4.46464920984">
        <ele>2.4</ele>
        <time>2019-05-24T20:34:38Z</time>
      </trkpt>
      <trkpt lat="51.226987258905" lon="4.464363219412">
        <ele>5</ele>
        <time>2019-05-24T20:34:55Z</time>
      </trkpt>
      <trkpt lat="51.226948115432" lon="4.464083599228">
        <ele>4.4</ele>
        <time>2019-05-24T20:35:10Z</time>
      </trkpt>
      <trkpt lat="51.226925149026" lon="4.46381101984">
        <ele>9.2</ele>
        <time>2019-05-24T20:35:53Z</time>
      </trkpt>
      <trkpt lat="51.226837474352" lon="4.463301232682">
        <ele>0.4</ele>
        <time>2019-05-24T20:36:19Z</time>
      </trkpt>
      <trkpt lat="51.22679321792" lon="4.462924717734">
        <ele>0</ele>
        <time>2019-05-24T20:36:41Z</time>
      </trkpt>
      <trkpt lat="51.226695233509" lon="4.462429431263">
        <ele>0</ele>
        <time>2019-05-24T20:37:05Z</time>
      </trkpt>
      <trkpt lat="51.226595991813" lon="4.461729123518">
        <ele>4.4</ele>
        <time>2019-05-24T20:37:39Z</time>
      </trkpt>
      <trkpt lat="51.226560536376" lon="4.461623511578">
        <ele>4.4</ele>
        <time>2019-05-24T20:37:44Z</time>
      </trkpt>
      <trkpt lat="51.22640345957" lon="4.46096955574">
        <ele>0</ele>
        <time>2019-05-24T20:38:15Z</time>
      </trkpt>
      <trkpt lat="51.226382840096" lon="4.460890430604">
        <ele>0</ele>
        <time>2019-05-24T20:38:22Z</time>
      </trkpt>
      <trkpt lat="51.22622995424" lon="4.460208563039">
        <ele>1.2</ele>
        <time>2019-05-24T20:38:58Z</time>
      </trkpt>
      <trkpt lat="51.226048569924" lon="4.459554858658">
        <ele>3.8</ele>
        <time>2019-05-24T20:39:32Z</time>
      </trkpt>
      <trkpt lat="51.225858803708" lon="4.458918923905">
        <ele>15.4</ele>
        <time>2019-05-24T20:40:11Z</time>
      </trkpt>
      <trkpt lat="51.225542973716" lon="4.458639974273">
        <ele>0</ele>
        <time>2019-05-24T20:40:34Z</time>
      </trkpt>
      <trkpt lat="51.225542722259" lon="4.458597058945">
        <ele>0</ele>
        <time>2019-05-24T20:40:37Z</time>
      </trkpt>
      <trkpt lat="51.225597456066" lon="4.458510557737">
        <ele>0</ele>
        <time>2019-05-24T20:40:46Z</time>
      </trkpt>
      <trkpt lat="51.225699547608" lon="4.458437886664">
        <ele>3</ele>
        <time>2019-05-24T20:40:59Z</time>
      </trkpt>
      <trkpt lat="51.225989477529" lon="4.458367311066">
        <ele>9.6</ele>
        <time>2019-05-24T20:41:26Z</time>
      </trkpt>
      <trkpt lat="51.226248310601" lon="4.458201181808">
        <ele>4</ele>
        <time>2019-05-24T20:41:50Z</time>
      </trkpt>
      <trkpt lat="51.226678050614" lon="4.45793949889">
        <ele>6</ele>
        <time>2019-05-24T20:42:20Z</time>
      </trkpt>
      <trkpt lat="51.226811406643" lon="4.457925584936">
        <ele>4.4</ele>
        <time>2019-05-24T20:42:32Z</time>
      </trkpt>
      <trkpt lat="51.226844934243" lon="4.458090289271">
        <ele>0</ele>
        <time>2019-05-24T20:42:43Z</time>
      </trkpt>
      <trkpt lat="51.227225053408" lon="4.457979061458">
        <ele>0</ele>
        <time>2019-05-24T20:43:14Z</time>
      </trkpt>
      <trkpt lat="51.227641717657" lon="4.457681671646">
        <ele>1</ele>
        <time>2019-05-24T20:43:50Z</time>
      </trkpt>
      <trkpt lat="51.227773984039" lon="4.457568013082">
        <ele>1.8</ele>
        <time>2019-05-24T20:44:06Z</time>
      </trkpt>
      <trkpt lat="51.227931982854" lon="4.457499952054">
        <ele>0</ele>
        <time>2019-05-24T20:44:34Z</time>
      </trkpt>
      <trkpt lat="51.228140021612" lon="4.45740473367">
        <ele>1.8</ele>
        <time>2019-05-24T20:45:32Z</time>
      </trkpt>
      <trkpt lat="51.228146727132" lon="4.457393501924">
        <ele>1.8</ele>
        <time>2019-05-24T20:45:52Z</time>
      </trkpt>
      <trkpt lat="51.228264828103" lon="4.457322004317">
        <ele>1.2</ele>
        <time>2019-05-24T20:46:05Z</time>
      </trkpt>
      <trkpt lat="51.228371278233" lon="4.457279172808">
        <ele>3.2</ele>
        <time>2019-05-24T20:46:15Z</time>
      </trkpt>
      <trkpt lat="51.228490385032" lon="4.457263750112">
        <ele>1.6</ele>
        <time>2019-05-24T20:46:29Z</time>
      </trkpt>
      <trkpt lat="51.228506897375" lon="4.457298367359">
        <ele>1.4</ele>
        <time>2019-05-24T20:46:31Z</time>
      </trkpt>
      <trkpt lat="51.228547968685" lon="4.457677061601">
        <ele>1</ele>
        <time>2019-05-24T20:46:56Z</time>
      </trkpt>
      <trkpt lat="51.22857604805" lon="4.457890464775">
        <ele>0</ele>
        <time>2019-05-24T20:47:13Z</time>
      </trkpt>
      <trkpt lat="51.228638660843" lon="4.45816245743">
        <ele>0</ele>
        <time>2019-05-24T20:47:30Z</time>
      </trkpt>
      <trkpt lat="51.229089355606" lon="4.458099425542">
        <ele>4.4</ele>
        <time>2019-05-24T20:48:10Z</time>
      </trkpt>
      <trkpt lat="51.22926084928" lon="4.458048212133">
        <ele>9.2</ele>
        <time>2019-05-24T20:48:36Z</time>
      </trkpt>
      <trkpt lat="51.229711292586" lon="4.457953831939">
        <ele>9.6</ele>
        <time>2019-05-24T20:49:21Z</time>
      </trkpt>
      <trkpt lat="51.22985764056" lon="4.457896332105">
        <ele>9.4</ele>
        <time>2019-05-24T20:49:35Z</time>
      </trkpt>
      <trkpt lat="51.229853701067" lon="4.457962800572">
        <ele>8.4</ele>
        <time>2019-05-24T20:49:41Z</time>
      </trkpt>
      <trkpt lat="51.22971514826" lon="4.45791938233">
        <ele>6.4</ele>
        <time>2019-05-24T20:50:49Z</time>
      </trkpt>
    </trkseg>
  </trk>
</gpx>